Terminal Aerodrome Forecast
Issued by NWS Billings, MT

Home | Current Version | Previous Version | Graphics & Text | Print | Product List | Glossary On
Versions: 1 2 3 4 5 6 7 8 9 10 11 12 13 14 15 16 17 18 19 20 21 22 23 24
000
FTUS45 KBYZ 182320
TAFMLS
TAF
KMLS 182320Z 1900/1924 15012KT P6SM FEW080
     FM190500 16012KT P6SM VCTS FEW080CB SCT120 WS009/12033KT
     FM191300 30012G18KT P6SM SKC=

USA.gov is the U.S. government's official web portal to all federal, state and local government web resources and services.